Strona główna
METAR-TAF:

METAR-TAF

Lotnisko :

Port lotniczy Sarajewo

Sarajewo, Bośnia i Hercegowina

Szerokość geograficzna: 43-49N, Długość geograficzna: 018-20E, wysokość: 511 m

Aktualna obserwacja pogody

Raport powstał 30 minut temu, godzina 01:00 UTC
Wiatr 2 kt z kierunków zmiennych
Temperatura -2°C
Wilgotność 93%
Ciśnienie 1044 hPa
Widzialność: 7000 m
Zachmurzenie całkowite na wysokości 2500 ft

METAR: LQSA 210100Z VRB02KT 7000 OVC025 M02/M03 Q1044

czas: 02:30 (01:30 UTC)

Prognoza

Raport powstał 2 godziny i 30 minut temu, godzina 23:00 UTC
Prognoza ważna od 21 godzina 00 UTC do 21 godzina 24 UTC
Wiatr 2 kt z kierunków zmiennych
Widzialność: 6000 m
Przerywane chmury na wysokości 3000 ft
Prawdopodobieństwo 40%
od 21 godzina 03 UTC do 21 godzina 09 UTC
Widzialność: 1200 m
Przerywane chmury na wysokości 400 ft
zamglenie
Stopniowe zmiany
od 21 godzina 15 UTC do 21 godzina 17 UTC
Widzialność: 3000 m
zamglenie

TAF: LQSA 202300Z 2100/2124 VRB02KT 6000 BKN030 TX02/2113Z TNM06/2105Z PROB40 2103/2109 1200 BR BKN004 BECMG 2115/2117 3000 BR

Obserwacja i prognoza pogody dla ponad 4000 lotnisk (raport METAR i TAF).

Dostępne stacje oznaczono żółtymi i czerwonymi punktami na mapie.

Najedź kursorem aby zobaczyć nazwę stacji.

Kliknij aby zobaczyć obserwacje i prognozy pogody.

Aby zmienić mapę: kliknij na zielony przycisk z czarnym krzyżykiem, aby powiększyć; na zielony przycisk z myślnikiem, aby pomniejszyć; na zielone strzałki, aby przejść do map sąsiednich.


METAR-TAF: